Time;durP1;ratioP1;P1;durP2;ratioP2;P2;SDS_P1;SDS_P2;PMS_P1;PMS_P2;Temp;Humidity;BMP_temperature;BMP_pressure;BME280_temperature;BME280_humidity;BME280_pressure;Samples;Min_cycle;Max_cycle;Signal;HPM_P1;HPM_P2
2020/12/04 00:01:18;;;;;;;46.40;32.97;;;;;;;5.25;71.40;99367.25;4995237;28;98337;-74
2020/12/04 00:03:45;;;;;;;39.58;31.20;;;;;;;5.23;71.18;99362.16;4995615;28;98711;-74
2020/12/04 00:06:11;;;;;;;37.00;26.88;;;;;;;5.42;70.37;99356.19;4995289;28;96877;-73
2020/12/04 00:08:37;;;;;;;37.70;27.80;;;;;;;5.39;70.75;99351.19;4995805;28;96766;-74
2020/12/04 00:11:04;;;;;;;34.88;26.50;;;;;;;5.44;70.35;99350.06;4993927;28;98285;-73
2020/12/04 00:13:30;;;;;;;32.22;23.58;;;;;;;5.45;70.44;99345.75;4995004;28;98551;-74
2020/12/04 00:15:57;;;;;;;31.83;24.10;;;;;;;5.47;70.29;99354.25;4995158;28;96651;-73
2020/12/04 00:18:24;;;;;;;36.95;26.30;;;;;;;5.50;70.11;99352.38;4995568;28;96671;-73
2020/12/04 00:20:50;;;;;;;37.63;25.23;;;;;;;5.65;69.80;99352.63;4994068;28;98593;-75
2020/12/04 00:23:16;;;;;;;33.13;25.40;;;;;;;5.45;69.97;99344.00;4980659;28;97952;-74
2020/12/04 00:25:43;;;;;;;36.13;22.33;;;;;;;5.55;69.69;99339.25;4991254;28;98124;-73
2020/12/04 00:28:09;;;;;;;29.95;20.95;;;;;;;5.60;69.50;99345.06;4985942;28;97117;-76
2020/12/04 00:30:35;;;;;;;27.33;20.38;;;;;;;5.54;69.85;99345.34;4987249;28;98624;-75
2020/12/04 00:33:03;;;;;;;33.13;22.40;;;;;;;5.46;69.94;99347.41;4975825;28;98555;-75
2020/12/04 00:35:29;;;;;;;30.67;22.25;;;;;;;5.34;70.77;99342.78;4986296;28;97966;-74
2020/12/04 00:37:56;;;;;;;32.67;21.38;;;;;;;5.30;71.17;99338.63;4988762;28;96888;-75
2020/12/04 00:40:22;;;;;;;34.97;24.00;;;;;;;5.44;70.02;99339.72;4984078;28;100194;-75
2020/12/04 00:42:48;;;;;;;35.55;23.40;;;;;;;5.28;70.63;99340.47;4988190;28;101680;-75
2020/12/04 00:45:15;;;;;;;34.65;23.05;;;;;;;5.43;69.94;99338.06;4976215;28;96977;-74
2020/12/04 00:47:42;;;;;;;32.28;22.98;;;;;;;5.25;70.90;99336.25;4991878;28;97653;-74
2020/12/04 00:50:10;;;;;;;32.15;22.55;;;;;;;5.09;71.30;99336.06;4973181;28;100509;-75
2020/12/04 00:52:36;;;;;;;35.72;22.27;;;;;;;5.29;71.14;99334.38;4987249;28;99131;-74
2020/12/04 00:55:03;;;;;;;34.35;22.48;;;;;;;5.44;70.05;99333.72;4982589;28;96693;-75
2020/12/04 00:57:29;;;;;;;39.85;24.38;;;;;;;5.24;71.08;99327.66;4990813;28;97875;-74
2020/12/04 00:59:56;;;;;;;35.22;23.50;;;;;;;5.25;70.55;99334.50;4970500;28;99902;-75
2020/12/04 01:02:22;;;;;;;37.45;22.65;;;;;;;5.42;69.46;99338.09;4986648;28;98726;-74
2020/12/04 01:04:48;;;;;;;32.05;20.77;;;;;;;5.26;70.28;99325.84;4988269;28;100768;-74
2020/12/04 01:07:15;;;;;;;37.08;21.23;;;;;;;5.28;70.37;99333.56;4986670;28;97298;-75
2020/12/04 01:09:41;;;;;;;38.25;21.70;;;;;;;5.27;70.10;99324.09;4966058;28;98498;-74
2020/12/04 01:12:07;;;;;;;45.60;26.02;;;;;;;5.36;69.99;99321.13;4987565;28;100894;-75
2020/12/04 01:14:34;;;;;;;35.08;23.58;;;;;;;5.26;70.08;99319.84;4959387;28;98012;-74
2020/12/04 01:17:00;;;;;;;40.35;24.35;;;;;;;5.36;69.61;99313.38;4986950;28;97790;-74
2020/12/04 01:19:27;;;;;;;33.97;22.30;;;;;;;5.35;69.82;99309.09;4987474;28;98445;-74
2020/12/04 01:21:53;;;;;;;34.30;21.63;;;;;;;5.40;69.44;99311.50;4990534;28;98414;-74
2020/12/04 01:24:19;;;;;;;37.63;21.73;;;;;;;5.07;70.83;99299.13;4973995;28;97671;-74
2020/12/04 01:26:46;;;;;;;32.20;24.20;;;;;;;5.35;69.76;99313.44;4986895;28;98330;-74
2020/12/04 01:29:12;;;;;;;34.35;21.35;;;;;;;5.19;70.61;99302.94;4990356;28;98597;-74
2020/12/04 01:31:39;;;;;;;37.78;22.70;;;;;;;5.30;70.05;99305.06;4975645;28;99933;-72
2020/12/04 01:34:09;;;;;;;34.15;21.35;;;;;;;5.33;70.07;99313.50;4988616;28;96654;-74
2020/12/04 01:36:35;;;;;;;34.70;21.45;;;;;;;5.23;70.75;99314.81;4987611;28;99236;-74
2020/12/04 01:39:02;;;;;;;29.42;20.35;;;;;;;5.19;70.79;99308.09;4989851;28;98550;-74
2020/12/04 01:41:32;;;;;;;34.42;19.33;;;;;;;5.26;70.55;99300.00;4985404;28;98608;-73
2020/12/04 01:43:59;;;;;;;31.48;21.15;;;;;;;5.23;71.06;99305.31;4986800;28;96974;-75
2020/12/04 01:46:25;;;;;;;26.48;17.75;;;;;;;5.26;70.87;99292.25;4988947;28;97488;-75
2020/12/04 01:48:52;;;;;;;25.35;16.98;;;;;;;5.18;71.58;99286.59;4970361;28;98495;-74
2020/12/04 01:51:18;;;;;;;27.50;16.90;;;;;;;5.25;71.31;99282.81;4984059;28;99864;-74
2020/12/04 01:53:45;;;;;;;25.63;18.70;;;;;;;5.40;70.23;99283.06;4960352;28;97028;-74
2020/12/04 01:56:11;;;;;;;26.77;17.13;;;;;;;5.24;71.20;99280.31;4975553;28;98286;-74
2020/12/04 01:58:38;;;;;;;27.45;17.98;;;;;;;5.43;70.26;99276.03;4987216;28;98602;-75
2020/12/04 02:01:05;;;;;;;28.92;18.50;;;;;;;5.40;70.56;99277.91;4987167;28;98439;-73
2020/12/04 02:03:33;;;;;;;29.60;17.88;;;;;;;5.49;69.64;99274.91;4973358;28;96926;-75
2020/12/04 02:06:01;;;;;;;32.45;21.45;;;;;;;5.37;69.90;99270.28;4969276;28;97292;-74
2020/12/04 02:08:33;;;;;;;31.50;20.30;;;;;;;5.46;69.83;99269.88;4985970;28;100065;-75
2020/12/04 02:11:14;;;;;;;30.15;20.98;;;;;;;5.54;69.63;99267.78;4982865;28;98801;-74
2020/12/04 02:13:41;;;;;;;29.77;19.65;;;;;;;5.56;69.25;99265.97;4983499;28;96761;-74
2020/12/04 02:16:07;;;;;;;29.05;18.08;;;;;;;5.48;69.99;99262.88;4971892;28;96761;-74
2020/12/04 02:18:36;;;;;;;29.42;20.50;;;;;;;5.37;70.22;99276.28;4962684;28;98529;-74
2020/12/04 02:21:03;;;;;;;28.40;17.88;;;;;;;5.48;69.45;99263.72;4959945;28;98590;-74
2020/12/04 02:23:29;;;;;;;27.58;20.33;;;;;;;5.48;69.26;99242.19;4987296;28;99296;-75
2020/12/04 02:25:56;;;;;;;27.98;19.40;;;;;;;5.44;68.95;99245.84;4954942;28;97299;-74
2020/12/04 02:28:38;;;;;;;26.55;18.25;;;;;;;5.42;69.66;99243.31;4985582;28;98690;-74
2020/12/04 02:31:05;;;;;;;28.35;19.85;;;;;;;5.42;69.68;99240.72;4988379;28;98740;-75
2020/12/04 02:33:32;;;;;;;28.13;19.52;;;;;;;5.33;70.11;99219.66;4986558;28;98141;-75
2020/12/04 02:35:58;;;;;;;29.15;19.60;;;;;;;5.38;69.36;99217.66;4986965;28;96649;-75
2020/12/04 02:38:25;;;;;;;28.52;19.23;;;;;;;5.43;69.42;99213.13;4983546;28;98574;-75
2020/12/04 02:40:52;;;;;;;29.52;17.33;;;;;;;5.51;68.96;99203.28;4989777;28;98609;-75
2020/12/04 02:43:18;;;;;;;31.45;19.23;;;;;;;5.48;68.70;99200.84;4982619;28;96695;-73
2020/12/04 02:45:45;;;;;;;25.65;16.38;;;;;;;5.30;69.30;99193.94;4983936;28;97398;-73
2020/12/04 02:48:11;;;;;;;27.88;17.48;;;;;;;5.29;69.37;99181.94;4985371;28;98452;-73
2020/12/04 02:50:38;;;;;;;31.88;17.20;;;;;;;5.33;69.47;99194.66;4988765;28;100455;-73
2020/12/04 02:53:05;;;;;;;24.23;15.38;;;;;;;5.23;69.73;99201.97;4989442;28;96889;-73
2020/12/04 02:55:31;;;;;;;29.98;17.60;;;;;;;5.27;69.76;99200.06;4982542;28;97039;-73
2020/12/04 02:57:58;;;;;;;26.33;18.95;;;;;;;5.23;70.05;99191.63;4980320;28;98950;-73
2020/12/04 03:00:24;;;;;;;24.27;17.17;;;;;;;5.07;70.49;99179.47;4982950;28;98603;-73
2020/12/04 03:02:51;;;;;;;28.58;19.45;;;;;;;5.04;71.25;99174.44;4987217;28;96963;-73
2020/12/04 03:05:17;;;;;;;25.88;17.60;;;;;;;5.17;70.28;99176.41;4989035;28;96603;-74
2020/12/04 03:07:44;;;;;;;28.73;18.90;;;;;;;5.18;70.20;99185.81;4987921;28;98461;-74
2020/12/04 03:10:10;;;;;;;28.73;18.38;;;;;;;5.20;70.23;99191.75;4985408;28;98428;-74
2020/12/04 03:12:37;;;;;;;24.40;16.75;;;;;;;5.25;70.21;99189.81;4987020;28;97282;-74
2020/12/04 03:15:06;;;;;;;30.20;20.27;;;;;;;5.08;70.83;99170.81;4988099;28;97526;-73
2020/12/04 03:17:34;;;;;;;23.13;16.05;;;;;;;5.22;69.78;99160.69;4987836;28;98521;-73
2020/12/04 03:20:00;;;;;;;26.27;16.58;;;;;;;5.26;69.61;99157.03;4988650;28;98468;-73
2020/12/04 03:22:27;;;;;;;29.27;20.35;;;;;;;5.31;69.27;99162.00;4983279;28;96945;-73
2020/12/04 03:24:53;;;;;;;29.17;20.20;;;;;;;5.16;69.91;99161.78;4988602;28;96735;-73
2020/12/04 03:27:19;;;;;;;25.98;19.55;;;;;;;5.22;69.85;99151.22;4973085;28;98546;-71
2020/12/04 03:29:47;;;;;;;30.50;20.25;;;;;;;5.11;70.11;99153.41;4984577;28;98971;-73
2020/12/04 03:32:14;;;;;;;32.55;20.80;;;;;;;5.05;70.25;99158.84;4988528;28;96868;-73
2020/12/04 03:34:41;;;;;;;32.92;20.83;;;;;;;4.93;71.15;99147.34;4985522;28;99139;-73
2020/12/04 03:37:08;;;;;;;28.42;20.27;;;;;;;4.96;70.75;99151.53;4983797;28;98491;-73
2020/12/04 03:39:35;;;;;;;31.88;20.88;;;;;;;5.06;70.58;99157.09;4987404;28;98511;-73
2020/12/04 03:42:03;;;;;;;27.70;18.90;;;;;;;4.99;70.88;99141.06;4985998;28;96572;-73
2020/12/04 03:44:29;;;;;;;30.77;20.52;;;;;;;5.17;69.93;99145.41;4983495;28;97108;-73
2020/12/04 03:46:57;;;;;;;29.85;20.23;;;;;;;5.32;69.42;99141.25;4987885;28;97629;-73
2020/12/04 03:49:23;;;;;;;27.70;17.73;;;;;;;5.32;69.20;99149.00;4979898;28;98385;-73
2020/12/04 03:51:49;;;;;;;25.85;18.48;;;;;;;4.86;70.76;99156.25;4984799;28;97601;-73
2020/12/04 03:54:16;;;;;;;26.48;19.25;;;;;;;5.03;70.60;99162.44;4985024;28;99453;-73
2020/12/04 03:56:42;;;;;;;30.10;19.27;;;;;;;5.06;70.87;99152.81;4984200;28;98442;-74
2020/12/04 03:59:08;;;;;;;35.40;21.27;;;;;;;5.22;70.67;99138.28;4985303;28;98306;-74
2020/12/04 04:01:35;;;;;;;30.63;21.90;;;;;;;5.07;71.16;99122.66;4986895;28;96946;-74
2020/12/04 04:04:01;;;;;;;29.30;19.50;;;;;;;5.37;69.35;99120.38;4988859;28;96688;-74
2020/12/04 04:06:28;;;;;;;32.38;19.73;;;;;;;5.32;69.75;99117.16;4988828;28;98485;-74
2020/12/04 04:08:54;;;;;;;26.65;19.30;;;;;;;5.42;69.54;99119.25;4984299;28;98579;-74
2020/12/04 04:11:20;;;;;;;43.35;21.27;;;;;;;5.30;69.38;99129.34;4986956;28;100726;-74
2020/12/04 04:13:47;;;;;;;31.10;19.10;;;;;;;5.41;69.15;99124.50;4989456;28;97165;-73
2020/12/04 04:16:13;;;;;;;35.15;20.63;;;;;;;5.36;69.30;99131.63;4988487;28;98153;-73
2020/12/04 04:18:39;;;;;;;34.40;20.05;;;;;;;5.20;70.02;99142.66;4988496;28;98557;-72
2020/12/04 04:21:09;;;;;;;31.60;19.90;;;;;;;5.35;69.36;99133.38;4988468;28;98067;-74
2020/12/04 04:23:36;;;;;;;36.53;22.70;;;;;;;5.31;69.74;99126.66;4988732;28;96638;-72
2020/12/04 04:26:03;;;;;;;31.48;21.00;;;;;;;5.29;69.84;99135.41;4990686;28;97533;-73
2020/12/04 04:28:30;;;;;;;34.42;20.95;;;;;;;5.19;70.00;99141.00;4989368;28;98414;-73
2020/12/04 04:30:57;;;;;;;37.30;22.65;;;;;;;5.13;70.63;99143.88;4989685;28;97066;-73
2020/12/04 04:33:23;;;;;;;36.38;23.10;;;;;;;4.90;71.64;99146.63;4989613;28;99614;-75
2020/12/04 04:35:49;;;;;;;36.28;22.75;;;;;;;4.81;71.47;99137.56;4989374;28;98524;-75
2020/12/04 04:38:16;;;;;;;37.67;20.42;;;;;;;4.88;71.86;99133.78;4987491;28;98683;-75
2020/12/04 04:40:42;;;;;;;39.65;23.52;;;;;;;4.84;71.99;99136.56;4987544;28;97559;-74
2020/12/04 04:43:09;;;;;;;39.20;22.42;;;;;;;4.77;72.08;99148.91;4988231;28;97303;-73
2020/12/04 04:45:42;;;;;;;37.38;23.65;;;;;;;4.84;71.61;99157.22;4996282;28;98629;-74
2020/12/04 04:48:12;;;;;;;40.85;23.55;;;;;;;4.94;71.49;99154.16;4998404;28;98548;-75
2020/12/04 04:50:42;;;;;;;41.30;24.25;;;;;;;5.05;70.87;99140.78;4976368;28;96594;-75
2020/12/04 04:53:08;;;;;;;31.05;21.23;;;;;;;5.02;71.30;99145.25;4978384;28;96625;-76
2020/12/04 04:55:34;;;;;;;37.55;23.42;;;;;;;5.05;71.26;99140.78;4960105;28;98534;-74
2020/12/04 04:58:05;;;;;;;36.45;21.52;;;;;;;5.07;71.50;99133.81;4960711;28;98367;-75
2020/12/04 05:00:32;;;;;;;40.88;22.50;;;;;;;4.85;72.03;99118.44;4978534;28;96692;-74
2020/12/04 05:02:59;;;;;;;42.05;24.33;;;;;;;4.93;72.16;99123.25;4976695;28;97118;-73
2020/12/04 05:05:47;;;;;;;37.92;23.15;;;;;;;5.03;71.66;99129.69;4977642;28;98523;-74
2020/12/04 05:08:23;;;;;;;37.25;23.58;;;;;;;5.19;70.81;99130.66;4977176;28;98622;-74
2020/12/04 05:10:49;;;;;;;44.08;25.92;;;;;;;4.98;71.82;99141.97;4978388;28;96679;-73
2020/12/04 05:13:20;;;;;;;45.72;24.10;;;;;;;5.18;71.20;99141.91;4977504;28;96649;-72
2020/12/04 05:15:46;;;;;;;47.50;25.23;;;;;;;5.15;71.31;99134.28;4977628;28;98537;-72
2020/12/04 05:18:17;;;;;;;49.88;27.02;;;;;;;5.08;71.41;99125.16;4976571;28;98780;-74
2020/12/04 05:20:50;;;;;;;41.03;25.02;;;;;;;5.22;70.80;99106.44;4978211;28;98347;-74
2020/12/04 05:23:17;;;;;;;51.20;29.13;;;;;;;5.33;70.34;99098.19;4973765;28;97932;-73
2020/12/04 05:25:48;;;;;;;49.05;26.98;;;;;;;5.30;71.04;99082.81;4975585;28;98413;-73
2020/12/04 05:28:21;;;;;;;55.42;28.98;;;;;;;5.37;70.45;99090.19;4975714;28;98653;-74
2020/12/04 05:31:10;;;;;;;48.65;28.17;;;;;;;5.28;70.76;99095.00;4975166;28;96708;-73
2020/12/04 05:33:37;;;;;;;47.97;25.30;;;;;;;5.31;71.37;99079.31;4974965;28;96566;-71
2020/12/04 05:36:04;;;;;;;49.13;28.63;;;;;;;5.28;71.20;99069.97;4976785;28;98557;-71
2020/12/04 05:38:31;;;;;;;49.13;25.42;;;;;;;5.24;71.62;99073.63;4976717;28;98554;-72
2020/12/04 05:41:08;;;;;;;50.45;24.55;;;;;;;5.36;71.18;99072.19;4976447;28;96931;-71
2020/12/04 05:43:36;;;;;;;51.53;29.50;;;;;;;5.21;71.74;99061.66;4975944;28;97414;-73
2020/12/04 05:46:12;;;;;;;51.28;26.13;;;;;;;5.23;71.91;99059.88;4976088;28;98538;-73
2020/12/04 05:48:39;;;;;;;55.67;28.40;;;;;;;5.21;71.79;99058.25;4976617;28;98626;-72
2020/12/04 05:51:05;;;;;;;45.95;25.27;;;;;;;5.15;72.08;99036.13;4975500;28;96756;-74
2020/12/04 05:53:31;;;;;;;57.38;28.60;;;;;;;5.09;72.47;99028.66;4977464;28;96647;-73
2020/12/04 05:55:58;;;;;;;61.10;29.45;;;;;;;5.30;71.59;99020.81;4974530;28;98565;-74
2020/12/04 05:58:24;;;;;;;53.42;28.20;;;;;;;5.28;71.64;99025.22;4975699;28;98414;-73
2020/12/04 06:00:51;;;;;;;60.90;28.40;;;;;;;5.37;71.45;99035.09;4962539;28;96591;-74
2020/12/04 06:03:17;;;;;;;59.30;28.65;;;;;;;5.22;71.36;99044.44;4967185;28;97809;-71
2020/12/04 06:05:44;;;;;;;60.55;27.55;;;;;;;5.02;72.53;99037.63;4970837;28;98437;-74
2020/12/04 06:08:10;;;;;;;56.92;27.58;;;;;;;5.16;72.00;99032.63;4974330;28;98655;-72
2020/12/04 06:10:36;;;;;;;56.38;26.02;;;;;;;5.07;72.23;99022.75;4975299;28;97304;-72
2020/12/04 06:13:03;;;;;;;54.05;29.67;;;;;;;5.10;72.56;99020.00;4958931;28;96723;-71
2020/12/04 06:15:33;;;;;;;59.53;27.42;;;;;;;5.07;72.51;99019.31;4976081;28;98415;-73
2020/12/04 06:18:01;;;;;;;64.32;30.02;;;;;;;5.20;72.33;99035.91;4976024;28;98463;-72
2020/12/04 06:20:28;;;;;;;60.33;29.70;;;;;;;5.08;73.08;99034.75;4975093;28;97596;-72
2020/12/04 06:23:10;;;;;;;62.53;27.65;;;;;;;4.94;73.59;99034.53;4975363;28;96603;-72
2020/12/04 06:25:53;;;;;;;59.75;28.45;;;;;;;5.16;73.37;99029.19;4976139;28;98613;-72
2020/12/04 06:28:23;;;;;;;60.15;31.08;;;;;;;5.20;72.82;99015.25;4972286;28;98474;-72
2020/12/04 06:31:09;;;;;;;52.67;27.42;;;;;;;5.21;72.67;99020.31;4976823;28;98247;-71
2020/12/04 06:33:49;;;;;;;63.95;28.05;;;;;;;5.33;72.25;99005.16;4976323;28;96512;-74
2020/12/04 06:36:31;;;;;;;57.75;28.88;;;;;;;5.06;72.42;98992.66;4976412;28;98550;-72
2020/12/04 06:38:58;;;;;;;52.85;30.50;;;;;;;5.12;73.18;99001.88;4971806;28;98459;-71
2020/12/04 06:41:33;;;;;;;65.18;30.75;;;;;;;5.25;72.30;99000.34;4976457;28;96886;-73
2020/12/04 06:44:19;;;;;;;59.67;30.52;;;;;;;5.33;72.16;99002.59;4976008;28;96673;-72
2020/12/04 06:46:53;;;;;;;57.70;27.23;;;;;;;5.07;72.61;98996.91;4972419;28;98622;-72
2020/12/04 06:49:23;;;;;;;;;;;;;;;5.09;72.76;98996.81;4975178;28;98469;-72
2020/12/04 06:51:58;;;;;;;52.42;24.92;;;;;;;4.97;73.88;99004.25;4975930;28;97235;-70
2020/12/04 06:54:25;;;;;;;60.30;28.90;;;;;;;4.99;72.92;99007.59;4969891;28;96634;-70
2020/12/04 06:56:53;;;;;;;61.72;28.33;;;;;;;5.10;73.23;98996.75;4975190;28;98461;-73
2020/12/04 06:59:36;;;;;;;61.97;30.55;;;;;;;4.94;74.06;98998.38;4976327;28;98746;-72
2020/12/04 07:02:06;;;;;;;60.20;29.65;;;;;;;5.12;73.16;99000.13;4973908;28;98486;-74
2020/12/04 07:04:33;;;;;;;53.80;29.83;;;;;;;5.28;72.13;98997.63;4976073;28;96588;-69
2020/12/04 07:07:16;;;;;;;71.03;32.40;;;;;;;5.07;73.27;99004.66;4971292;28;97489;-71
2020/12/04 07:09:52;;;;;;;55.13;27.10;;;;;;;5.16;73.16;99013.69;4973846;28;98406;-68
2020/12/04 07:12:20;;;;;;;66.15;31.48;;;;;;;5.03;73.61;99005.72;4975358;28;96941;-69
2020/12/04 07:14:50;;;;;;;58.45;29.75;;;;;;;5.17;72.71;99003.31;4974184;28;96933;-72
2020/12/04 07:17:21;;;;;;;51.45;26.58;;;;;;;5.31;72.28;99010.38;4971236;28;98454;-68
2020/12/04 07:19:48;;;;;;;53.28;25.98;;;;;;;5.28;72.62;99012.31;4963106;28;98621;-67
2020/12/04 07:22:18;;;;;;;54.70;28.25;;;;;;;5.23;72.29;99015.09;4971399;28;97254;-67
2020/12/04 07:24:44;;;;;;;52.03;29.35;;;;;;;5.29;72.31;99017.38;4974479;28;96853;-65
2020/12/04 07:27:18;;;;;;;58.60;26.15;;;;;;;5.07;73.21;99001.25;4971880;28;98565;-66
2020/12/04 07:29:44;;;;;;;59.83;28.33;;;;;;;5.14;72.61;98994.88;4972806;28;98444;-65
2020/12/04 07:32:11;;;;;;;56.42;28.58;;;;;;;5.09;72.83;98987.31;4973699;28;96825;-66
2020/12/04 07:34:38;;;;;;;59.13;29.63;;;;;;;5.05;72.33;98987.53;4973706;28;96912;-66
2020/12/04 07:37:06;;;;;;;51.10;28.15;;;;;;;4.93;72.58;98994.97;4968164;28;98610;-65
2020/12/04 07:39:33;;;;;;;57.05;27.83;;;;;;;5.02;72.50;98996.28;4972797;28;98557;-65
2020/12/04 07:42:00;;;;;;;53.00;27.58;;;;;;;4.99;72.55;98984.34;4966623;28;97217;-64
2020/12/04 07:44:29;;;;;;;52.13;27.65;;;;;;;4.87;73.29;98984.09;4972663;28;96880;-65
2020/12/04 07:47:03;;;;;;;46.53;25.98;;;;;;;5.05;72.36;98996.13;4974668;28;98351;-66
2020/12/04 07:49:30;;;;;;;57.80;29.50;;;;;;;4.99;72.21;98986.09;4975256;28;98430;-65
2020/12/04 07:52:11;;;;;;;56.10;27.90;;;;;;;4.96;72.41;98974.19;4980893;28;96561;-66
2020/12/04 07:54:38;;;;;;;57.47;26.58;;;;;;;4.99;73.08;98974.00;4978787;28;96966;-68
2020/12/04 07:57:04;;;;;;;55.03;28.38;;;;;;;4.81;74.45;98971.47;4992959;28;101098;-65
2020/12/04 07:59:31;;;;;;;46.42;24.42;;;;;;;4.78;75.33;98976.75;4976855;28;98595;-64
2020/12/04 08:02:02;;;;;;;46.88;23.50;;;;;;;4.88;74.83;98970.28;4992531;28;98452;-66
2020/12/04 08:04:29;;;;;;;49.08;22.52;;;;;;;4.77;74.87;98973.34;4983051;28;96923;-66
2020/12/04 08:07:10;;;;;;;40.38;23.10;;;;;;;4.91;75.08;98962.38;4990413;28;98827;-66
2020/12/04 08:09:38;;;;;;;44.58;26.05;;;;;;;4.98;74.73;98956.84;4988115;28;97593;-66
2020/12/04 08:12:08;;;;;;;44.08;21.73;;;;;;;4.94;74.60;98957.06;4984410;28;96623;-65
2020/12/04 08:14:35;;;;;;;47.38;23.27;;;;;;;5.03;74.86;98971.28;4966918;28;96577;-63
2020/12/04 08:17:04;;;;;;;47.05;22.85;;;;;;;4.99;74.60;98983.50;4985293;28;98369;-68
2020/12/04 08:19:32;;;;;;;46.88;22.67;;;;;;;5.08;74.34;98990.00;4986310;28;98497;-66
2020/12/04 08:21:59;;;;;;;51.28;21.77;;;;;;;5.03;74.21;98986.78;4964136;28;97115;-66
2020/12/04 08:24:27;;;;;;;58.47;22.95;;;;;;;5.00;74.14;98980.00;4993907;28;96832;-70
2020/12/04 08:26:59;;;;;;;53.20;24.75;;;;;;;4.99;74.80;98970.59;4988478;28;98616;-68
2020/12/04 08:29:25;;;;;;;38.28;18.50;;;;;;;4.87;74.80;98978.94;4986303;28;98607;-70
2020/12/04 08:32:12;;;;;;;40.83;19.90;;;;;;;4.93;74.78;98960.56;4994751;28;97057;-71
2020/12/04 08:34:38;;;;;;;41.70;22.33;;;;;;;4.90;74.38;98950.38;4992798;28;96883;-68
2020/12/04 08:37:07;;;;;;;34.88;22.35;;;;;;;4.99;74.49;98943.03;4993617;28;98718;-71
2020/12/04 08:39:38;;;;;;;37.33;19.33;;;;;;;4.97;73.84;98941.44;4994435;28;98613;-68
2020/12/04 08:42:21;;;;;;;41.80;22.85;;;;;;;4.86;74.32;98944.53;4985510;28;99415;-68
2020/12/04 08:45:03;;;;;;;35.90;20.48;;;;;;;4.89;74.11;98946.13;4990869;28;96602;-67
2020/12/04 08:47:30;;;;;;;32.13;19.63;;;;;;;4.79;74.57;98958.63;4973277;28;98536;-69
2020/12/04 08:49:57;;;;;;;35.63;24.08;;;;;;;4.86;74.20;98972.09;4995972;28;98397;-70
2020/12/04 08:52:53;;;;;;;28.35;17.27;;;;;;;4.88;73.71;98970.28;4990439;28;96485;-60
2020/12/04 08:55:26;;;;;;;25.05;15.13;;;;;;;4.91;73.76;98955.47;4969234;28;98665;-67
2020/12/04 08:57:54;;;;;;;29.08;18.13;;;;;;;4.87;73.78;98948.78;4980973;28;98613;-64
2020/12/04 09:00:30;;;;;;;26.48;17.83;;;;;;;4.95;74.07;98938.06;4995804;28;98645;-64
2020/12/04 09:02:56;;;;;;;27.70;19.15;;;;;;;5.10;73.03;98941.66;4991837;28;97487;-65
2020/12/04 09:05:23;;;;;;;30.33;20.40;;;;;;;5.10;73.09;98932.16;4995963;28;96840;-65
2020/12/04 09:07:49;;;;;;;35.17;23.75;;;;;;;5.15;72.52;98926.78;4997640;28;98510;-65
2020/12/04 09:10:17;;;;;;;35.10;22.95;;;;;;;5.03;73.11;98930.81;4996468;28;98607;-65
2020/12/04 09:12:44;;;;;;;33.72;23.27;;;;;;;5.10;72.39;98919.25;4973483;28;97315;-65
2020/12/04 09:15:12;;;;;;;36.55;24.17;;;;;;;5.15;72.96;98922.44;4995619;28;96697;-65
2020/12/04 09:17:39;;;;;;;35.72;25.75;;;;;;;5.25;72.24;98905.59;4995879;28;97529;-64
2020/12/04 09:20:06;;;;;;;37.78;25.27;;;;;;;5.13;72.58;98901.03;4995913;28;98559;-65
2020/12/04 09:22:33;;;;;;;38.83;27.45;;;;;;;5.26;72.87;98894.34;4997335;28;96477;-66
2020/12/04 09:25:00;;;;;;;41.95;26.15;;;;;;;5.28;73.04;98873.63;4994647;28;96672;-67
2020/12/04 09:27:28;;;;;;;37.53;25.67;;;;;;;5.23;74.59;98870.41;4977367;28;98570;-72
2020/12/04 09:29:54;;;;;;;36.50;26.58;;;;;;;5.38;73.01;98874.81;4994179;28;98553;-72
2020/12/04 09:32:21;;;;;;;33.45;23.63;;;;;;;5.60;73.39;98877.16;4997095;28;96768;-74
2020/12/04 09:34:48;;;;;;;38.08;22.67;;;;;;;5.96;73.23;98891.66;4997293;28;96604;-73
2020/12/04 09:37:28;;;;;;;30.65;22.08;;;;;;;5.86;72.60;98890.44;4996313;28;98422;-73
2020/12/04 09:40:01;;;;;;;35.40;25.60;;;;;;;5.81;72.01;98887.28;4996611;28;98976;-68
2020/12/04 09:42:28;;;;;;;33.53;21.27;;;;;;;5.75;72.48;98894.47;4996221;28;96665;-69
2020/12/04 09:44:55;;;;;;;28.52;21.05;;;;;;;5.64;72.66;98893.31;4996895;28;96789;-68
2020/12/04 09:47:22;;;;;;;26.35;18.40;;;;;;;5.71;72.73;98899.88;4996105;28;98680;-69
2020/12/04 09:49:49;;;;;;;28.58;18.92;;;;;;;5.75;72.24;98889.28;4990058;28;98600;-68
2020/12/04 09:52:16;;;;;;;31.83;24.10;;;;;;;5.72;72.89;98878.25;4997808;28;96477;-69
2020/12/04 09:54:43;;;;;;;28.20;19.45;;;;;;;5.76;73.13;98872.84;4992322;28;96639;-68
2020/12/04 09:57:10;;;;;;;29.15;19.75;;;;;;;5.78;73.26;98854.66;4977937;28;98183;-69
2020/12/04 09:59:37;;;;;;;21.58;17.67;;;;;;;5.57;74.55;98869.53;4989272;28;97191;-70
2020/12/04 10:02:04;;;;;;;28.08;19.88;;;;;;;5.59;74.64;98870.28;4996818;28;96706;-69
2020/12/04 10:04:30;;;;;;;24.38;19.45;;;;;;;5.65;74.98;98866.56;4995652;28;96650;-70
2020/12/04 10:06:57;;;;;;;27.65;19.55;;;;;;;5.56;75.41;98859.28;4995998;28;98581;-71
2020/12/04 10:09:24;;;;;;;23.35;18.42;;;;;;;5.56;75.77;98860.13;4996314;28;98538;-70
2020/12/04 10:11:50;;;;;;;27.27;18.75;;;;;;;5.65;75.70;98851.91;4989184;28;96739;-72
2020/12/04 10:14:17;;;;;;;23.17;17.80;;;;;;;5.70;75.40;98865.41;4979885;28;98420;-74
2020/12/04 10:16:44;;;;;;;25.08;17.58;;;;;;;5.65;75.97;98846.72;4982149;28;99100;-70
2020/12/04 10:19:16;;;;;;;32.97;21.75;;;;;;;5.60;76.21;98828.03;4983643;28;98599;-71
2020/12/04 10:21:42;;;;;;;23.88;18.20;;;;;;;5.50;77.00;98809.56;4982199;28;96707;-69
2020/12/04 10:24:10;;;;;;;26.92;18.48;;;;;;;5.67;76.61;98813.84;4985720;28;96744;-71
2020/12/04 10:26:37;;;;;;;26.45;21.33;;;;;;;5.67;75.80;98824.19;4983373;28;98373;-70
2020/12/04 10:29:05;;;;;;;26.45;20.10;;;;;;;5.68;76.32;98815.53;4982906;28;98601;-70
2020/12/04 10:31:31;;;;;;;25.17;19.48;;;;;;;5.82;75.98;98807.03;4982168;28;96626;-73
2020/12/04 10:33:58;;;;;;;30.15;19.60;;;;;;;5.87;76.19;98811.97;4984589;28;97243;-73
2020/12/04 10:36:26;;;;;;;26.63;19.60;;;;;;;5.88;76.24;98793.78;4987473;28;97594;-72
2020/12/04 10:38:56;;;;;;;31.95;21.98;;;;;;;5.83;77.04;98793.19;4979480;28;98564;-72
2020/12/04 10:41:23;;;;;;;32.30;22.13;;;;;;;5.84;76.12;98791.44;4988930;28;97620;-73
2020/12/04 10:43:49;;;;;;;29.13;21.95;;;;;;;5.95;75.98;98796.91;4995508;28;97296;-75
2020/12/04 10:46:16;;;;;;;29.55;20.58;;;;;;;5.87;76.38;98794.69;4989847;28;98589;-75
2020/12/04 10:48:43;;;;;;;30.42;21.85;;;;;;;5.78;76.53;98780.50;4984412;28;97675;-73
2020/12/04 10:51:10;;;;;;;28.85;22.33;;;;;;;5.79;76.34;98782.16;4980641;28;97597;-75
2020/12/04 10:53:36;;;;;;;30.83;20.15;;;;;;;5.70;76.63;98782.69;4986578;28;97590;-73
2020/12/04 10:56:06;;;;;;;28.55;22.20;;;;;;;5.71;76.39;98765.41;4984544;28;98504;-72
2020/12/04 10:58:32;;;;;;;29.90;21.20;;;;;;;5.74;76.98;98757.47;4985697;28;98640;-73
2020/12/04 11:00:59;;;;;;;25.45;20.45;;;;;;;5.84;76.20;98747.47;4980811;28;97567;-74
2020/12/04 11:03:40;;;;;;;28.10;21.20;;;;;;;5.83;76.51;98750.97;4984411;28;96657;-74
2020/12/04 11:06:06;;;;;;;29.70;21.75;;;;;;;5.69;76.88;98752.56;4985139;28;97774;-73
2020/12/04 11:08:33;;;;;;;25.23;20.00;;;;;;;5.80;77.03;98741.63;4984821;28;99721;-73
2020/12/04 11:10:59;;;;;;;27.55;19.08;;;;;;;5.75;76.88;98752.25;4984801;28;99243;-74
2020/12/04 11:13:37;;;;;;;28.45;21.23;;;;;;;5.80;76.56;98739.03;4981516;28;97424;-75
2020/12/04 11:16:03;;;;;;;29.02;20.70;;;;;;;5.82;76.56;98739.81;4981812;28;98779;-74
2020/12/04 11:18:29;;;;;;;26.05;19.45;;;;;;;5.70;76.85;98728.38;4983141;28;98600;-73
2020/12/04 11:20:56;;;;;;;25.40;17.60;;;;;;;5.73;77.34;98732.53;4987507;28;99388;-73
2020/12/04 11:23:22;;;;;;;25.55;19.33;;;;;;;5.74;77.23;98713.53;4985936;28;97982;-72
2020/12/04 11:25:48;;;;;;;25.30;21.10;;;;;;;5.86;77.33;98701.66;4982356;28;98548;-71
2020/12/04 11:28:15;;;;;;;25.40;19.30;;;;;;;5.83;77.30;98684.59;4977973;28;98849;-70
2020/12/04 11:30:41;;;;;;;26.15;19.02;;;;;;;5.84;77.59;98706.09;4984028;28;96739;-73